createdAt,value
2023-04-25T00:01:05.385Z,2.70
2023-04-25T00:03:52.129Z,2.80
2023-04-25T00:06:41.055Z,2.70
2023-04-25T00:09:28.703Z,2.80
2023-04-25T00:12:16.077Z,2.60
2023-04-25T00:15:03.485Z,3.20
2023-04-25T00:17:53.482Z,2.80
2023-04-25T00:20:42.497Z,3.00
2023-04-25T00:23:29.412Z,2.80
2023-04-25T00:26:15.990Z,2.50
2023-04-25T00:29:03.388Z,2.80
2023-04-25T00:31:50.216Z,2.80
2023-04-25T00:34:36.872Z,2.60
2023-04-25T00:37:23.797Z,2.50
2023-04-25T00:40:10.952Z,2.30
2023-04-25T00:42:57.845Z,2.20
2023-04-25T00:45:47.819Z,2.30
2023-04-25T00:48:34.600Z,2.30
2023-04-25T00:51:22.541Z,2.20
2023-04-25T00:54:12.921Z,2.70
2023-04-25T00:57:01.361Z,2.50
2023-04-25T00:59:48.537Z,2.60
2023-04-25T01:02:36.386Z,2.80
2023-04-25T01:05:23.468Z,2.70
2023-04-25T01:08:10.925Z,2.50
2023-04-25T01:10:57.680Z,3.00
2023-04-25T01:13:44.783Z,2.50
2023-04-25T01:16:33.669Z,3.00
2023-04-25T01:19:20.651Z,3.00
2023-04-25T01:22:07.493Z,3.40
2023-04-25T01:24:54.135Z,3.60
2023-04-25T01:27:41.304Z,3.60
2023-04-25T01:30:30.249Z,4.10
2023-04-25T01:33:17.648Z,4.00
2023-04-25T01:36:05.443Z,3.80
2023-04-25T01:38:52.785Z,4.30
2023-04-25T01:41:39.400Z,3.80
2023-04-25T01:44:26.742Z,3.80
2023-04-25T01:47:13.948Z,3.80
2023-04-25T01:50:00.632Z,4.20
2023-04-25T01:52:50.035Z,3.70
2023-04-25T01:55:36.848Z,4.20
2023-04-25T01:58:29.853Z,4.10
2023-04-25T02:01:32.994Z,4.30
2023-04-25T02:04:32.182Z,4.00
2023-04-25T02:07:19.487Z,4.30
2023-04-25T02:10:13.733Z,4.70
2023-04-25T02:13:15.629Z,4.20
2023-04-25T02:16:17.800Z,4.20
2023-04-25T02:19:05.585Z,4.10
2023-04-25T02:21:52.696Z,4.20
2023-04-25T02:24:40.679Z,4.10
2023-04-25T02:27:27.392Z,4.10
2023-04-25T02:30:14.296Z,4.40
2023-04-25T02:33:01.330Z,3.70
2023-04-25T02:35:50.098Z,4.10
2023-04-25T02:38:36.971Z,4.00
2023-04-25T02:41:24.100Z,4.20
2023-04-25T02:44:10.788Z,4.20
2023-04-25T02:46:58.437Z,4.30
2023-04-25T02:49:46.014Z,4.20
2023-04-25T02:52:32.614Z,4.60
2023-04-25T02:55:28.307Z,4.30
2023-04-25T02:58:16.032Z,4.60
2023-04-25T03:01:10.136Z,4.60
2023-04-25T03:03:57.242Z,4.30
2023-04-25T03:06:44.749Z,4.80
2023-04-25T03:09:33.528Z,5.20
2023-04-25T03:12:20.229Z,5.00
2023-04-25T03:15:07.721Z,4.80
2023-04-25T03:17:54.968Z,4.20
2023-04-25T03:20:43.422Z,4.90
2023-04-25T03:23:30.844Z,5.30
2023-04-25T03:26:18.669Z,5.50
2023-04-25T03:29:05.872Z,4.50
2023-04-25T03:31:54.309Z,4.50
2023-04-25T03:34:41.864Z,5.10
2023-04-25T03:37:29.600Z,4.50
2023-04-25T03:40:16.424Z,4.50
2023-04-25T03:43:31.817Z,4.00
2023-04-25T03:46:22.019Z,4.50
2023-04-25T03:49:08.591Z,4.50
2023-04-25T03:52:11.831Z,4.40
2023-04-25T03:54:59.463Z,4.20
2023-04-25T03:57:46.340Z,3.50
2023-04-25T04:00:33.130Z,4.20
2023-04-25T04:03:22.172Z,3.90
2023-04-25T04:06:10.693Z,3.80
2023-04-25T04:09:00.563Z,3.50
2023-04-25T04:11:48.689Z,4.40
2023-04-25T04:14:35.909Z,4.30
2023-04-25T04:17:22.680Z,4.10
2023-04-25T04:20:10.349Z,4.20
2023-04-25T04:22:58.722Z,4.30
2023-04-25T04:25:47.340Z,4.00
2023-04-25T04:28:56.792Z,4.00
2023-04-25T04:32:01.629Z,3.50
2023-04-25T04:34:49.547Z,3.90
2023-04-25T04:37:37.359Z,4.70
2023-04-25T04:40:25.929Z,4.50
2023-04-25T04:43:24.893Z,4.40
2023-04-25T04:46:22.356Z,4.40
2023-04-25T04:49:31.763Z,4.80
2023-04-25T04:52:48.886Z,4.90
2023-04-25T04:55:58.292Z,4.10
2023-04-25T04:59:13.809Z,4.20
2023-04-25T05:02:07.745Z,4.60
2023-04-25T05:05:09.566Z,4.50
2023-04-25T05:08:09.910Z,4.50
2023-04-25T05:11:26.361Z,4.20
2023-04-25T05:14:24.495Z,4.60
2023-04-25T05:17:33.293Z,4.30
2023-04-25T05:20:37.740Z,4.30
2023-04-25T05:23:43.960Z,3.90
2023-04-25T05:26:50.669Z,3.70
2023-04-25T05:29:55.404Z,4.00
2023-04-25T05:32:48.883Z,4.20
2023-04-25T05:35:35.429Z,4.70
2023-04-25T05:38:22.126Z,4.10
2023-04-25T05:41:32.071Z,3.60
2023-04-25T05:44:22.305Z,4.10
2023-04-25T05:47:29.218Z,3.90
2023-04-25T05:50:33.531Z,3.60
2023-04-25T05:53:24.176Z,3.40
2023-04-25T05:56:19.519Z,3.30
2023-04-25T05:59:08.124Z,3.70
2023-04-25T06:01:56.321Z,3.60
2023-04-25T06:04:43.163Z,3.40
2023-04-25T06:07:31.838Z,3.00
2023-04-25T06:10:18.841Z,3.30
2023-04-25T06:13:06.154Z,3.20
2023-04-25T06:15:54.038Z,3.50
2023-04-25T06:18:40.568Z,3.60
2023-04-25T06:21:27.844Z,3.70
2023-04-25T06:24:14.558Z,3.70
2023-04-25T06:27:01.601Z,3.50
2023-04-25T06:29:50.148Z,4.50
2023-04-25T06:32:37.364Z,3.80
2023-04-25T06:35:24.182Z,3.30
2023-04-25T06:38:10.845Z,2.80
2023-04-25T06:40:58.236Z,3.50
2023-04-25T06:43:45.588Z,3.40
2023-04-25T06:46:48.714Z,3.90
2023-04-25T06:49:35.646Z,3.70
2023-04-25T06:52:22.817Z,3.70
2023-04-25T06:55:10.088Z,3.70
2023-04-25T06:58:12.616Z,3.70
2023-04-25T07:01:11.410Z,3.70
2023-04-25T07:03:58.413Z,3.80
2023-04-25T07:06:47.755Z,4.10
2023-04-25T07:09:36.561Z,3.80
2023-04-25T07:12:23.423Z,3.60
2023-04-25T07:15:12.022Z,3.80
2023-04-25T07:18:00.452Z,3.70
2023-04-25T07:20:47.420Z,3.30
2023-04-25T07:23:34.250Z,2.60
2023-04-25T07:26:23.306Z,3.40
2023-04-25T07:29:30.756Z,2.70
2023-04-25T07:32:19.245Z,3.10
2023-04-25T07:35:08.237Z,2.60
2023-04-25T07:37:55.584Z,3.20
2023-04-25T07:40:43.578Z,2.60
2023-04-25T07:43:33.908Z,3.20
2023-04-25T07:46:20.478Z,5.90
2023-04-25T07:49:08.575Z,3.20
2023-04-25T07:51:55.484Z,2.60
2023-04-25T07:54:43.492Z,2.40
2023-04-25T07:57:35.431Z,3.30
2023-04-25T08:00:23.393Z,2.80
2023-04-25T08:03:11.141Z,2.40
2023-04-25T08:05:58.263Z,2.50
2023-04-25T08:08:46.069Z,2.50
2023-04-25T08:11:33.907Z,4.90
2023-04-25T08:14:20.897Z,2.40
2023-04-25T08:17:08.507Z,2.50
2023-04-25T08:19:59.970Z,2.30
2023-04-25T08:22:49.260Z,2.60
2023-04-25T08:25:55.889Z,2.30
2023-04-25T08:28:44.766Z,2.50
2023-04-25T08:31:32.484Z,2.30
2023-04-25T08:34:21.102Z,2.00
2023-04-25T08:37:10.353Z,2.20
2023-04-25T08:40:07.521Z,2.30
2023-04-25T08:43:11.691Z,2.40
2023-04-25T08:46:02.086Z,2.40
2023-04-25T08:49:02.789Z,2.20
2023-04-25T08:51:52.135Z,2.10
2023-04-25T08:54:48.944Z,2.40
2023-04-25T08:57:36.337Z,2.10
2023-04-25T09:00:23.336Z,2.00
2023-04-25T09:03:11.283Z,1.80
2023-04-25T09:05:58.478Z,2.00
2023-04-25T09:08:44.889Z,2.10
2023-04-25T09:11:33.011Z,2.30
2023-04-25T09:14:23.485Z,2.50
2023-04-25T09:17:20.458Z,2.50
2023-04-25T09:20:14.262Z,2.40
2023-04-25T09:23:07.015Z,2.00
2023-04-25T09:25:55.376Z,2.10
2023-04-25T09:28:43.491Z,2.90
2023-04-25T09:31:30.161Z,2.20
2023-04-25T09:34:21.484Z,2.20
2023-04-25T09:37:21.846Z,2.50
2023-04-25T09:40:26.988Z,2.10
2023-04-25T09:43:25.392Z,2.00
2023-04-25T09:46:12.235Z,2.00
2023-04-25T09:49:08.555Z,1.90
2023-04-25T09:52:04.641Z,1.70
2023-04-25T09:54:57.578Z,1.70
2023-04-25T09:57:55.081Z,1.80
2023-04-25T10:00:41.716Z,2.40
2023-04-25T10:03:36.282Z,2.50
2023-04-25T10:06:56.339Z,3.10
2023-04-25T10:09:46.101Z,2.00
2023-04-25T10:12:34.586Z,2.00
2023-04-25T10:15:22.875Z,2.20
2023-04-25T10:18:10.066Z,2.30
2023-04-25T10:21:02.270Z,2.30
2023-04-25T10:23:50.168Z,1.90
2023-04-25T10:26:36.672Z,1.90
2023-04-25T10:29:25.461Z,1.90
2023-04-25T10:32:12.412Z,2.30
2023-04-25T10:35:24.818Z,2.40
2023-04-25T10:38:14.774Z,2.10
2023-04-25T10:41:08.673Z,2.20
2023-04-25T10:44:03.836Z,2.30
2023-04-25T10:46:50.735Z,2.40
2023-04-25T10:49:43.163Z,2.20
2023-04-25T10:52:30.212Z,2.10
2023-04-25T10:55:16.800Z,2.20
2023-04-25T10:58:04.057Z,2.10
2023-04-25T11:03:44.664Z,2.50
2023-04-25T11:06:58.142Z,2.60
2023-04-25T11:09:50.671Z,2.00
2023-04-25T11:12:37.293Z,2.30
2023-04-25T11:15:25.484Z,2.10
2023-04-25T11:18:17.512Z,1.80
2023-04-25T11:21:04.378Z,2.20
2023-04-25T11:23:50.745Z,2.60
2023-04-25T11:26:38.015Z,1.80
2023-04-25T11:29:28.519Z,2.20
2023-04-25T11:32:19.793Z,1.80
2023-04-25T11:35:08.952Z,2.10
2023-04-25T11:37:56.892Z,1.90
2023-04-25T11:40:43.268Z,2.20
2023-04-25T11:43:29.436Z,2.70
2023-04-25T11:46:16.387Z,2.30
2023-04-25T11:49:05.699Z,2.10
2023-04-25T11:51:52.660Z,2.70
2023-04-25T11:54:39.045Z,2.30
2023-04-25T11:57:25.745Z,2.30
2023-04-25T12:00:18.692Z,2.70
2023-04-25T12:03:09.999Z,2.40
2023-04-25T12:06:04.423Z,2.20
2023-04-25T12:09:01.204Z,2.40
2023-04-25T12:11:49.703Z,2.40
2023-04-25T12:14:37.262Z,2.20
2023-04-25T12:17:23.840Z,2.30
2023-04-25T12:20:14.053Z,2.60
2023-04-25T12:23:00.774Z,2.30
2023-04-25T12:25:47.802Z,2.50
2023-04-25T12:28:34.789Z,2.60
2023-04-25T12:31:21.743Z,2.40
2023-04-25T12:34:08.652Z,2.40
2023-04-25T12:36:55.197Z,2.30
2023-04-25T12:39:41.862Z,2.60
2023-04-25T12:42:28.439Z,3.00
2023-04-25T12:45:16.269Z,2.30
2023-04-25T12:48:04.137Z,2.20
2023-04-25T12:50:52.385Z,2.40
2023-04-25T12:53:41.148Z,2.40
2023-04-25T12:56:28.265Z,3.20
2023-04-25T12:59:15.030Z,3.50
2023-04-25T13:02:02.227Z,3.10
2023-04-25T13:04:49.042Z,2.60
2023-04-25T13:07:36.099Z,2.20
2023-04-25T13:10:23.195Z,2.80
2023-04-25T13:13:10.055Z,2.70
2023-04-25T13:15:58.570Z,2.70
2023-04-25T13:18:45.499Z,2.50
2023-04-25T13:21:32.927Z,2.70
2023-04-25T13:24:19.313Z,2.60
2023-04-25T13:27:05.677Z,2.30
2023-04-25T13:29:53.075Z,2.10
2023-04-25T13:32:40.453Z,2.10
2023-04-25T13:35:27.010Z,2.80
2023-04-25T13:38:14.527Z,2.50
2023-04-25T13:41:01.470Z,2.10
2023-04-25T13:43:48.022Z,2.60
2023-04-25T13:46:46.478Z,2.10
2023-04-25T13:49:35.233Z,2.10
2023-04-25T13:52:21.873Z,2.60
2023-04-25T13:55:09.976Z,2.20
2023-04-25T13:57:56.829Z,2.20
2023-04-25T14:00:45.847Z,3.50
2023-04-25T14:03:32.673Z,2.90
2023-04-25T14:06:23.263Z,3.60
2023-04-25T14:09:10.836Z,2.70
2023-04-25T14:11:57.614Z,2.70
2023-04-25T14:14:44.343Z,2.50
2023-04-25T14:17:32.890Z,2.40
2023-04-25T14:20:21.687Z,2.70
2023-04-25T14:23:08.647Z,2.70
2023-04-25T14:25:55.433Z,2.50
2023-04-25T14:28:41.831Z,2.50
2023-04-25T14:31:29.664Z,2.60
2023-04-25T14:34:16.514Z,3.10
2023-04-25T14:37:05.122Z,2.70
2023-04-25T14:39:52.212Z,3.20
2023-04-25T14:42:40.699Z,3.40
2023-04-25T14:45:29.166Z,3.00
2023-04-25T14:48:18.545Z,4.20
2023-04-25T14:51:07.447Z,4.10
2023-04-25T14:53:56.815Z,3.70
2023-04-25T14:56:43.314Z,3.90
2023-04-25T14:59:30.896Z,3.40
2023-04-25T15:02:18.369Z,4.40
2023-04-25T15:05:06.241Z,3.70
2023-04-25T15:07:53.992Z,3.20
2023-04-25T15:10:40.302Z,3.20
2023-04-25T15:13:29.153Z,3.40
2023-04-25T15:16:16.051Z,3.80
2023-04-25T15:19:06.212Z,4.10
2023-04-25T15:21:52.804Z,4.30
2023-04-25T15:24:39.733Z,3.60
2023-04-25T15:27:28.917Z,3.80
2023-04-25T15:30:20.405Z,4.00
2023-04-25T15:33:06.930Z,3.20
2023-04-25T15:35:53.700Z,3.50
2023-04-25T15:38:41.892Z,3.70
2023-04-25T15:41:29.255Z,4.30
2023-04-25T15:44:18.416Z,4.40
2023-04-25T15:47:05.472Z,4.50
2023-04-25T15:49:52.295Z,4.30
2023-04-25T15:52:39.189Z,4.50
2023-04-25T15:55:26.383Z,4.60
2023-04-25T15:58:13.314Z,4.00
2023-04-25T16:01:00.070Z,3.90
2023-04-25T16:03:48.019Z,4.40
2023-04-25T16:06:34.738Z,3.40
2023-04-25T16:09:21.652Z,4.20
2023-04-25T16:12:11.383Z,5.20
2023-04-25T16:14:59.085Z,4.20
2023-04-25T16:17:45.921Z,3.80
2023-04-25T16:20:34.011Z,4.40
2023-04-25T16:23:21.036Z,4.40
2023-04-25T16:26:08.665Z,3.40
2023-04-25T16:28:55.710Z,3.80
2023-04-25T16:31:42.865Z,3.70
2023-04-25T16:34:30.072Z,4.20
2023-04-25T16:37:16.552Z,4.10
2023-04-25T16:40:03.867Z,4.00
2023-04-25T16:42:50.708Z,4.50
2023-04-25T16:45:37.566Z,3.30
2023-04-25T16:48:24.074Z,3.40
2023-04-25T16:51:10.813Z,3.60
2023-04-25T16:54:02.402Z,3.60
2023-04-25T16:56:49.252Z,3.40
2023-04-25T16:59:35.661Z,3.30
2023-04-25T17:02:22.883Z,3.80
2023-04-25T17:05:10.234Z,5.30
2023-04-25T17:07:58.502Z,4.40
2023-04-25T17:10:45.423Z,4.60
2023-04-25T17:13:33.160Z,4.40
2023-04-25T17:16:22.718Z,4.70
2023-04-25T17:19:09.362Z,4.50
2023-04-25T17:21:55.833Z,3.90
2023-04-25T17:24:43.182Z,4.70
2023-04-25T17:27:29.876Z,4.30
2023-04-25T17:30:16.913Z,3.60
2023-04-25T17:33:04.040Z,4.30
2023-04-25T17:35:51.196Z,5.80
2023-04-25T17:38:40.914Z,4.40
2023-04-25T17:41:28.767Z,3.90
2023-04-25T17:44:16.316Z,5.00
2023-04-25T17:47:06.601Z,5.00
2023-04-25T17:49:57.063Z,4.60
2023-04-25T17:52:44.896Z,4.10
2023-04-25T17:55:33.995Z,4.30
2023-04-25T17:58:21.562Z,3.70
2023-04-25T18:01:09.725Z,4.10
2023-04-25T18:03:56.734Z,4.00
2023-04-25T18:06:43.608Z,3.80
2023-04-25T18:09:33.722Z,3.50
2023-04-25T18:12:20.588Z,3.50
2023-04-25T18:15:08.727Z,3.90
2023-04-25T18:17:57.336Z,3.90
2023-04-25T18:20:45.375Z,3.90
2023-04-25T18:23:33.387Z,4.70
2023-04-25T18:26:20.630Z,4.00
2023-04-25T18:29:12.088Z,4.50
2023-04-25T18:32:01.740Z,4.70
2023-04-25T18:34:49.749Z,4.20
2023-04-25T18:37:36.803Z,3.40
2023-04-25T18:40:23.673Z,5.00
2023-04-25T18:43:11.104Z,4.00
2023-04-25T18:45:58.235Z,4.20
2023-04-25T18:48:46.652Z,3.70
2023-04-25T18:51:33.139Z,3.60
2023-04-25T18:54:20.177Z,3.10
2023-04-25T18:57:06.999Z,3.10
2023-04-25T18:59:53.769Z,4.50
2023-04-25T19:02:41.106Z,3.60
2023-04-25T19:05:33.955Z,3.50
2023-04-25T19:08:21.140Z,3.30
2023-04-25T19:11:20.420Z,3.70
2023-04-25T19:14:08.486Z,3.80
2023-04-25T19:16:58.510Z,3.60
2023-04-25T19:19:50.089Z,3.90
2023-04-25T19:22:37.019Z,3.60
2023-04-25T19:25:25.247Z,3.50
2023-04-25T19:28:13.507Z,3.80
2023-04-25T19:31:00.871Z,3.30
2023-04-25T19:33:47.272Z,3.70
2023-04-25T19:36:38.424Z,4.00
2023-04-25T19:39:25.063Z,3.30
2023-04-25T19:42:13.546Z,3.40
2023-04-25T19:45:00.112Z,3.80
2023-04-25T19:47:47.608Z,3.70
2023-04-25T19:50:34.446Z,3.60
2023-04-25T19:53:20.888Z,3.20
2023-04-25T19:56:09.078Z,3.10
2023-04-25T19:58:58.973Z,3.70
2023-04-25T20:01:49.303Z,3.60
2023-04-25T20:04:38.043Z,3.70
2023-04-25T20:07:24.848Z,3.20
2023-04-25T20:10:15.803Z,3.30
2023-04-25T20:13:02.428Z,3.20
2023-04-25T20:15:49.781Z,3.40
2023-04-25T20:18:36.714Z,2.60
2023-04-25T20:21:23.503Z,3.20
2023-04-25T20:24:11.319Z,3.20
2023-04-25T20:26:58.337Z,2.60
2023-04-25T20:29:45.150Z,2.90
2023-04-25T20:32:34.051Z,2.60
2023-04-25T20:35:22.376Z,2.50
2023-04-25T20:38:09.783Z,2.40
2023-04-25T20:40:57.933Z,2.80
2023-04-25T20:43:46.696Z,2.50
2023-04-25T20:46:35.755Z,3.00
2023-04-25T20:49:22.808Z,2.40
2023-04-25T20:52:09.779Z,3.00
2023-04-25T20:54:56.399Z,2.80
2023-04-25T20:57:42.872Z,2.50
2023-04-25T21:00:33.745Z,3.10
2023-04-25T21:03:20.301Z,3.20
2023-04-25T21:06:08.236Z,2.40
2023-04-25T21:08:54.964Z,2.40
2023-04-25T21:11:42.114Z,2.40
2023-04-25T21:14:28.619Z,2.20
2023-04-25T21:17:17.282Z,2.20
2023-04-25T21:20:09.696Z,2.50
2023-04-25T21:22:56.458Z,2.70
2023-04-25T21:25:42.986Z,2.10
2023-04-25T21:28:29.245Z,2.90
2023-04-25T21:31:15.744Z,3.20
2023-04-25T21:34:02.642Z,2.40
2023-04-25T21:36:50.411Z,3.00
2023-04-25T21:39:37.026Z,2.40
2023-04-25T21:42:23.609Z,2.60
2023-04-25T21:45:12.485Z,2.80
2023-04-25T21:47:59.102Z,2.40
2023-04-25T21:50:47.102Z,2.60
2023-04-25T21:53:33.457Z,2.70
2023-04-25T21:56:21.053Z,2.60
2023-04-25T21:59:07.659Z,2.80
2023-04-25T22:01:54.614Z,2.50
2023-04-25T22:04:47.422Z,2.70
2023-04-25T22:07:33.931Z,3.10
2023-04-25T22:10:21.545Z,2.60
2023-04-25T22:13:07.985Z,2.70
2023-04-25T22:15:54.346Z,2.70
2023-04-25T22:18:41.588Z,2.60
2023-04-25T22:21:28.090Z,2.70
2023-04-25T22:24:15.141Z,2.40
2023-04-25T22:27:02.472Z,2.20
2023-04-25T22:29:49.335Z,3.20
2023-04-25T22:32:36.518Z,2.60
2023-04-25T22:35:23.227Z,2.80
2023-04-25T22:38:11.467Z,2.50
2023-04-25T22:40:57.918Z,3.20
2023-04-25T22:43:44.246Z,2.90
2023-04-25T22:46:31.084Z,2.70
2023-04-25T22:49:17.592Z,2.20
2023-04-25T22:52:06.861Z,2.50
2023-04-25T22:54:53.609Z,2.70
2023-04-25T22:57:40.811Z,2.40
2023-04-25T23:00:29.708Z,2.70
2023-04-25T23:03:16.265Z,2.60
2023-04-25T23:06:03.323Z,2.70
2023-04-25T23:08:50.494Z,3.00
2023-04-25T23:11:38.598Z,2.70
2023-04-25T23:14:25.503Z,2.80
2023-04-25T23:17:12.059Z,2.50
2023-04-25T23:19:58.820Z,2.40
2023-04-25T23:22:44.788Z,2.30
2023-04-25T23:25:32.173Z,2.50
2023-04-25T23:28:19.720Z,2.20
2023-04-25T23:31:07.669Z,1.90
2023-04-25T23:33:54.253Z,2.50
2023-04-25T23:36:41.206Z,2.10
2023-04-25T23:39:28.142Z,2.60
2023-04-25T23:42:14.726Z,2.40
2023-04-25T23:45:01.231Z,2.30
2023-04-25T23:47:48.193Z,3.10
2023-04-25T23:50:35.573Z,2.40
2023-04-25T23:53:23.972Z,2.30
2023-04-25T23:56:14.460Z,2.70
2023-04-25T23:59:06.135Z,2.40
